sensor_id;sensor_type;location;lat;lon;timestamp;temperature;humidity
31783;DHT22;18351;47.560;9.708;2023-10-31T00:01:17;10.30;99.90
31783;DHT22;18351;47.560;9.708;2023-10-31T00:03:43;10.30;99.90
31783;DHT22;18351;47.560;9.708;2023-10-31T00:06:10;10.30;99.90
31783;DHT22;18351;47.560;9.708;2023-10-31T00:08:35;10.40;99.90
31783;DHT22;18351;47.560;9.708;2023-10-31T00:11:01;10.50;99.90
31783;DHT22;18351;47.560;9.708;2023-10-31T00:13:26;10.40;99.90
31783;DHT22;18351;47.560;9.708;2023-10-31T00:15:52;10.30;99.90
31783;DHT22;18351;47.560;9.708;2023-10-31T00:18:18;10.40;99.90
31783;DHT22;18351;47.560;9.708;2023-10-31T00:20:44;10.40;99.90
31783;DHT22;18351;47.560;9.708;2023-10-31T00:23:10;10.40;99.90
31783;DHT22;18351;47.560;9.708;2023-10-31T00:25:35;10.50;99.90
31783;DHT22;18351;47.560;9.708;2023-10-31T00:28:01;10.50;99.90
31783;DHT22;18351;47.560;9.708;2023-10-31T00:30:26;10.60;99.90
31783;DHT22;18351;47.560;9.708;2023-10-31T00:32:52;10.60;99.90
31783;DHT22;18351;47.560;9.708;2023-10-31T00:35:18;10.60;99.90
31783;DHT22;18351;47.560;9.708;2023-10-31T00:37:43;10.70;99.90
31783;DHT22;18351;47.560;9.708;2023-10-31T00:40:09;10.70;99.90
31783;DHT22;18351;47.560;9.708;2023-10-31T00:42:39;10.70;99.90
31783;DHT22;18351;47.560;9.708;2023-10-31T00:45:07;10.70;99.90
31783;DHT22;18351;47.560;9.708;2023-10-31T00:47:33;10.70;99.90
31783;DHT22;18351;47.560;9.708;2023-10-31T00:49:59;10.70;99.90
31783;DHT22;18351;47.560;9.708;2023-10-31T00:52:24;10.70;99.90
31783;DHT22;18351;47.560;9.708;2023-10-31T00:54:50;10.80;99.90
31783;DHT22;18351;47.560;9.708;2023-10-31T00:57:15;10.70;99.90
31783;DHT22;18351;47.560;9.708;2023-10-31T00:59:41;10.80;99.90
31783;DHT22;18351;47.560;9.708;2023-10-31T01:02:06;10.70;99.90
31783;DHT22;18351;47.560;9.708;2023-10-31T01:04:32;10.70;99.90
31783;DHT22;18351;47.560;9.708;2023-10-31T01:06:57;10.70;99.90
31783;DHT22;18351;47.560;9.708;2023-10-31T01:09:23;10.70;99.90
31783;DHT22;18351;47.560;9.708;2023-10-31T01:11:49;10.70;99.90
31783;DHT22;18351;47.560;9.708;2023-10-31T01:14:14;10.60;99.90
31783;DHT22;18351;47.560;9.708;2023-10-31T01:16:40;10.60;99.90
31783;DHT22;18351;47.560;9.708;2023-10-31T01:19:06;10.60;99.90
31783;DHT22;18351;47.560;9.708;2023-10-31T01:21:32;10.60;99.90
31783;DHT22;18351;47.560;9.708;2023-10-31T01:23:59;10.70;99.90
31783;DHT22;18351;47.560;9.708;2023-10-31T01:26:25;10.70;99.90
31783;DHT22;18351;47.560;9.708;2023-10-31T01:28:51;10.70;99.90
31783;DHT22;18351;47.560;9.708;2023-10-31T01:31:17;10.70;99.90
31783;DHT22;18351;47.560;9.708;2023-10-31T01:33:42;10.70;99.90
31783;DHT22;18351;47.560;9.708;2023-10-31T01:36:08;10.80;99.90
31783;DHT22;18351;47.560;9.708;2023-10-31T01:38:36;10.70;99.90
31783;DHT22;18351;47.560;9.708;2023-10-31T01:41:02;10.70;99.90
31783;DHT22;18351;47.560;9.708;2023-10-31T01:43:35;10.80;99.90
31783;DHT22;18351;47.560;9.708;2023-10-31T01:46:00;10.80;99.90
31783;DHT22;18351;47.560;9.708;2023-10-31T01:48:29;10.80;99.90
31783;DHT22;18351;47.560;9.708;2023-10-31T01:50:56;10.80;99.90
31783;DHT22;18351;47.560;9.708;2023-10-31T01:53:23;10.80;99.90
31783;DHT22;18351;47.560;9.708;2023-10-31T01:55:49;10.70;99.90
31783;DHT22;18351;47.560;9.708;2023-10-31T01:58:15;10.70;99.90
31783;DHT22;18351;47.560;9.708;2023-10-31T02:00:41;10.70;99.90
31783;DHT22;18351;47.560;9.708;2023-10-31T02:03:08;10.70;99.90
31783;DHT22;18351;47.560;9.708;2023-10-31T02:05:34;10.70;99.90
31783;DHT22;18351;47.560;9.708;2023-10-31T02:08:01;10.70;99.90
31783;DHT22;18351;47.560;9.708;2023-10-31T02:10:26;10.70;99.90
31783;DHT22;18351;47.560;9.708;2023-10-31T02:12:52;10.70;99.90
31783;DHT22;18351;47.560;9.708;2023-10-31T02:15:17;10.60;99.90
31783;DHT22;18351;47.560;9.708;2023-10-31T02:17:43;10.70;99.90
31783;DHT22;18351;47.560;9.708;2023-10-31T02:20:09;10.60;99.90
31783;DHT22;18351;47.560;9.708;2023-10-31T02:22:35;10.60;99.90
31783;DHT22;18351;47.560;9.708;2023-10-31T02:25:00;10.60;99.90
31783;DHT22;18351;47.560;9.708;2023-10-31T02:27:26;10.60;99.90
31783;DHT22;18351;47.560;9.708;2023-10-31T02:29:51;10.50;99.90
31783;DHT22;18351;47.560;9.708;2023-10-31T02:32:17;10.40;99.90
31783;DHT22;18351;47.560;9.708;2023-10-31T02:34:44;10.40;99.90
31783;DHT22;18351;47.560;9.708;2023-10-31T02:37:10;10.40;99.90
31783;DHT22;18351;47.560;9.708;2023-10-31T02:39:37;10.40;99.90
31783;DHT22;18351;47.560;9.708;2023-10-31T02:42:03;10.40;99.90
31783;DHT22;18351;47.560;9.708;2023-10-31T02:44:29;10.40;99.90
31783;DHT22;18351;47.560;9.708;2023-10-31T02:46:54;10.30;99.90
31783;DHT22;18351;47.560;9.708;2023-10-31T02:49:21;10.30;99.90
31783;DHT22;18351;47.560;9.708;2023-10-31T02:51:46;10.30;99.90
31783;DHT22;18351;47.560;9.708;2023-10-31T02:54:12;10.30;99.90
31783;DHT22;18351;47.560;9.708;2023-10-31T02:56:37;10.30;99.90
31783;DHT22;18351;47.560;9.708;2023-10-31T02:59:03;10.30;99.90
31783;DHT22;18351;47.560;9.708;2023-10-31T03:01:29;10.20;99.90
31783;DHT22;18351;47.560;9.708;2023-10-31T03:03:55;10.20;99.90
31783;DHT22;18351;47.560;9.708;2023-10-31T03:06:21;10.20;99.90
31783;DHT22;18351;47.560;9.708;2023-10-31T03:08:47;10.20;99.90
31783;DHT22;18351;47.560;9.708;2023-10-31T03:11:26;10.20;99.90
31783;DHT22;18351;47.560;9.708;2023-10-31T03:13:51;10.30;99.90
31783;DHT22;18351;47.560;9.708;2023-10-31T03:16:18;10.20;99.90
31783;DHT22;18351;47.560;9.708;2023-10-31T03:18:45;10.20;99.90
31783;DHT22;18351;47.560;9.708;2023-10-31T03:21:11;10.20;99.90
31783;DHT22;18351;47.560;9.708;2023-10-31T03:23:37;10.20;99.90
31783;DHT22;18351;47.560;9.708;2023-10-31T03:26:02;10.20;99.90
31783;DHT22;18351;47.560;9.708;2023-10-31T03:28:28;10.20;99.90
31783;DHT22;18351;47.560;9.708;2023-10-31T03:30:54;10.30;99.90
31783;DHT22;18351;47.560;9.708;2023-10-31T03:33:19;10.20;99.90
31783;DHT22;18351;47.560;9.708;2023-10-31T03:35:45;10.20;99.90
31783;DHT22;18351;47.560;9.708;2023-10-31T03:38:11;10.20;99.90
31783;DHT22;18351;47.560;9.708;2023-10-31T03:40:37;10.20;99.90
31783;DHT22;18351;47.560;9.708;2023-10-31T03:43:02;10.20;99.90
31783;DHT22;18351;47.560;9.708;2023-10-31T03:45:29;10.20;99.90
31783;DHT22;18351;47.560;9.708;2023-10-31T03:47:54;10.20;99.90
31783;DHT22;18351;47.560;9.708;2023-10-31T03:50:20;10.20;99.90
31783;DHT22;18351;47.560;9.708;2023-10-31T03:52:45;10.20;99.90
31783;DHT22;18351;47.560;9.708;2023-10-31T03:55:11;10.20;99.90
31783;DHT22;18351;47.560;9.708;2023-10-31T03:57:36;10.20;99.90
31783;DHT22;18351;47.560;9.708;2023-10-31T04:00:02;10.30;99.90
31783;DHT22;18351;47.560;9.708;2023-10-31T04:02:30;10.30;99.90
31783;DHT22;18351;47.560;9.708;2023-10-31T04:04:55;10.30;99.90
31783;DHT22;18351;47.560;9.708;2023-10-31T04:07:21;10.20;99.90
31783;DHT22;18351;47.560;9.708;2023-10-31T04:09:46;10.30;99.90
31783;DHT22;18351;47.560;9.708;2023-10-31T04:12:12;10.30;99.90
31783;DHT22;18351;47.560;9.708;2023-10-31T04:14:38;10.30;99.90
31783;DHT22;18351;47.560;9.708;2023-10-31T04:17:04;10.30;99.90
31783;DHT22;18351;47.560;9.708;2023-10-31T04:19:30;10.30;99.90
31783;DHT22;18351;47.560;9.708;2023-10-31T04:21:55;10.30;99.90
31783;DHT22;18351;47.560;9.708;2023-10-31T04:24:21;10.30;99.90
31783;DHT22;18351;47.560;9.708;2023-10-31T04:26:46;10.30;99.90
31783;DHT22;18351;47.560;9.708;2023-10-31T04:29:12;10.30;99.90
31783;DHT22;18351;47.560;9.708;2023-10-31T04:31:39;10.30;99.90
31783;DHT22;18351;47.560;9.708;2023-10-31T04:34:04;10.30;99.90
31783;DHT22;18351;47.560;9.708;2023-10-31T04:36:30;10.40;99.90
31783;DHT22;18351;47.560;9.708;2023-10-31T04:38:55;10.40;99.90
31783;DHT22;18351;47.560;9.708;2023-10-31T04:41:21;10.40;99.90
31783;DHT22;18351;47.560;9.708;2023-10-31T04:43:46;10.40;99.90
31783;DHT22;18351;47.560;9.708;2023-10-31T04:46:12;10.40;99.90
31783;DHT22;18351;47.560;9.708;2023-10-31T04:48:37;10.40;99.90
31783;DHT22;18351;47.560;9.708;2023-10-31T04:51:03;10.40;99.90
31783;DHT22;18351;47.560;9.708;2023-10-31T04:53:29;10.40;99.90
31783;DHT22;18351;47.560;9.708;2023-10-31T04:55:54;10.50;99.90
31783;DHT22;18351;47.560;9.708;2023-10-31T04:58:20;10.50;99.90
31783;DHT22;18351;47.560;9.708;2023-10-31T05:00:47;10.50;99.90
31783;DHT22;18351;47.560;9.708;2023-10-31T05:03:12;10.50;99.90
31783;DHT22;18351;47.560;9.708;2023-10-31T05:05:38;10.50;99.90
31783;DHT22;18351;47.560;9.708;2023-10-31T05:08:03;10.50;99.90
31783;DHT22;18351;47.560;9.708;2023-10-31T05:10:29;10.50;99.90
31783;DHT22;18351;47.560;9.708;2023-10-31T05:12:55;10.50;99.90
31783;DHT22;18351;47.560;9.708;2023-10-31T05:15:22;10.50;99.90
31783;DHT22;18351;47.560;9.708;2023-10-31T05:17:48;10.50;99.90
31783;DHT22;18351;47.560;9.708;2023-10-31T05:20:13;10.50;99.90
31783;DHT22;18351;47.560;9.708;2023-10-31T05:22:40;10.40;99.90
31783;DHT22;18351;47.560;9.708;2023-10-31T05:25:06;10.40;99.90
31783;DHT22;18351;47.560;9.708;2023-10-31T05:27:32;10.40;99.90
31783;DHT22;18351;47.560;9.708;2023-10-31T05:29:57;10.40;99.90
31783;DHT22;18351;47.560;9.708;2023-10-31T05:32:23;10.30;99.90
31783;DHT22;18351;47.560;9.708;2023-10-31T05:34:48;10.40;99.90
31783;DHT22;18351;47.560;9.708;2023-10-31T05:37:14;10.40;99.90
31783;DHT22;18351;47.560;9.708;2023-10-31T05:39:40;10.40;99.90
31783;DHT22;18351;47.560;9.708;2023-10-31T05:42:05;10.40;99.90
31783;DHT22;18351;47.560;9.708;2023-10-31T05:44:31;10.40;99.90
31783;DHT22;18351;47.560;9.708;2023-10-31T05:46:56;10.40;99.90
31783;DHT22;18351;47.560;9.708;2023-10-31T05:49:22;10.50;99.90
31783;DHT22;18351;47.560;9.708;2023-10-31T05:51:51;10.40;99.90
31783;DHT22;18351;47.560;9.708;2023-10-31T05:54:17;10.40;99.90
31783;DHT22;18351;47.560;9.708;2023-10-31T05:56:42;10.40;99.90
31783;DHT22;18351;47.560;9.708;2023-10-31T05:59:08;10.40;99.90
31783;DHT22;18351;47.560;9.708;2023-10-31T06:01:34;10.40;99.90
31783;DHT22;18351;47.560;9.708;2023-10-31T06:03:59;10.30;99.90
31783;DHT22;18351;47.560;9.708;2023-10-31T06:06:25;10.30;99.90
31783;DHT22;18351;47.560;9.708;2023-10-31T06:08:50;10.30;99.90
31783;DHT22;18351;47.560;9.708;2023-10-31T06:11:16;10.30;99.90
31783;DHT22;18351;47.560;9.708;2023-10-31T06:13:41;10.30;99.90
31783;DHT22;18351;47.560;9.708;2023-10-31T06:16:07;10.20;99.90
31783;DHT22;18351;47.560;9.708;2023-10-31T06:18:33;10.20;99.90
31783;DHT22;18351;47.560;9.708;2023-10-31T06:21:00;10.20;99.90
31783;DHT22;18351;47.560;9.708;2023-10-31T06:23:25;10.20;99.90
31783;DHT22;18351;47.560;9.708;2023-10-31T06:25:51;10.10;99.90
31783;DHT22;18351;47.560;9.708;2023-10-31T06:28:16;10.10;99.90
31783;DHT22;18351;47.560;9.708;2023-10-31T06:30:42;10.20;99.90
31783;DHT22;18351;47.560;9.708;2023-10-31T06:33:08;10.10;99.90
31783;DHT22;18351;47.560;9.708;2023-10-31T06:35:34;10.20;99.90
31783;DHT22;18351;47.560;9.708;2023-10-31T06:38:00;10.10;99.90
31783;DHT22;18351;47.560;9.708;2023-10-31T06:40:26;10.20;99.90
31783;DHT22;18351;47.560;9.708;2023-10-31T06:42:52;10.20;99.90
31783;DHT22;18351;47.560;9.708;2023-10-31T06:45:18;10.30;99.90
31783;DHT22;18351;47.560;9.708;2023-10-31T06:47:43;10.20;99.90
31783;DHT22;18351;47.560;9.708;2023-10-31T06:50:09;10.20;99.90
31783;DHT22;18351;47.560;9.708;2023-10-31T06:52:35;10.30;99.90
31783;DHT22;18351;47.560;9.708;2023-10-31T06:55:01;10.30;99.90
31783;DHT22;18351;47.560;9.708;2023-10-31T06:57:26;10.30;99.90
31783;DHT22;18351;47.560;9.708;2023-10-31T06:59:52;10.30;99.90
31783;DHT22;18351;47.560;9.708;2023-10-31T07:02:18;10.40;99.90
31783;DHT22;18351;47.560;9.708;2023-10-31T07:04:43;10.40;99.90
31783;DHT22;18351;47.560;9.708;2023-10-31T07:07:09;10.50;99.90
31783;DHT22;18351;47.560;9.708;2023-10-31T07:09:34;10.50;99.90
31783;DHT22;18351;47.560;9.708;2023-10-31T07:12:00;10.60;99.90
31783;DHT22;18351;47.560;9.708;2023-10-31T07:14:25;10.60;99.90
31783;DHT22;18351;47.560;9.708;2023-10-31T07:16:51;10.60;99.90
31783;DHT22;18351;47.560;9.708;2023-10-31T07:19:17;10.70;99.90
31783;DHT22;18351;47.560;9.708;2023-10-31T07:21:42;10.70;99.90
31783;DHT22;18351;47.560;9.708;2023-10-31T07:24:08;10.80;99.90
31783;DHT22;18351;47.560;9.708;2023-10-31T07:26:37;10.80;99.90
31783;DHT22;18351;47.560;9.708;2023-10-31T07:29:03;10.80;99.90
31783;DHT22;18351;47.560;9.708;2023-10-31T07:31:28;10.90;99.90
31783;DHT22;18351;47.560;9.708;2023-10-31T07:33:54;10.90;99.90
31783;DHT22;18351;47.560;9.708;2023-10-31T07:36:21;11.00;99.90
31783;DHT22;18351;47.560;9.708;2023-10-31T07:38:47;10.90;99.90
31783;DHT22;18351;47.560;9.708;2023-10-31T07:41:13;11.00;99.90
31783;DHT22;18351;47.560;9.708;2023-10-31T07:43:38;11.10;99.90
31783;DHT22;18351;47.560;9.708;2023-10-31T07:46:04;11.10;99.90
31783;DHT22;18351;47.560;9.708;2023-10-31T07:48:30;11.20;99.90
31783;DHT22;18351;47.560;9.708;2023-10-31T07:50:56;11.20;99.90
31783;DHT22;18351;47.560;9.708;2023-10-31T07:53:22;11.20;99.90
31783;DHT22;18351;47.560;9.708;2023-10-31T07:55:48;11.30;99.90
31783;DHT22;18351;47.560;9.708;2023-10-31T07:58:14;11.30;99.90
31783;DHT22;18351;47.560;9.708;2023-10-31T08:00:40;11.30;99.90
31783;DHT22;18351;47.560;9.708;2023-10-31T08:03:06;11.30;99.90
31783;DHT22;18351;47.560;9.708;2023-10-31T08:05:31;11.30;99.90
31783;DHT22;18351;47.560;9.708;2023-10-31T08:07:57;11.30;99.90
31783;DHT22;18351;47.560;9.708;2023-10-31T08:10:23;11.30;99.90
31783;DHT22;18351;47.560;9.708;2023-10-31T08:12:49;11.30;99.90
31783;DHT22;18351;47.560;9.708;2023-10-31T08:15:15;11.30;99.90
31783;DHT22;18351;47.560;9.708;2023-10-31T08:17:42;11.30;99.90
31783;DHT22;18351;47.560;9.708;2023-10-31T08:20:08;11.30;99.90
31783;DHT22;18351;47.560;9.708;2023-10-31T08:22:35;11.30;99.90
31783;DHT22;18351;47.560;9.708;2023-10-31T08:25:00;11.30;99.90
31783;DHT22;18351;47.560;9.708;2023-10-31T08:27:26;11.20;99.90
31783;DHT22;18351;47.560;9.708;2023-10-31T08:29:51;11.20;99.90
31783;DHT22;18351;47.560;9.708;2023-10-31T08:32:17;11.20;99.90
31783;DHT22;18351;47.560;9.708;2023-10-31T08:34:43;11.30;99.90
31783;DHT22;18351;47.560;9.708;2023-10-31T08:37:08;11.30;99.90
31783;DHT22;18351;47.560;9.708;2023-10-31T08:39:34;11.30;99.90
31783;DHT22;18351;47.560;9.708;2023-10-31T08:42:00;11.30;99.90
31783;DHT22;18351;47.560;9.708;2023-10-31T08:44:25;11.40;99.90
31783;DHT22;18351;47.560;9.708;2023-10-31T08:46:51;11.40;99.90
31783;DHT22;18351;47.560;9.708;2023-10-31T08:49:17;11.40;99.90
31783;DHT22;18351;47.560;9.708;2023-10-31T08:51:43;11.40;99.90
31783;DHT22;18351;47.560;9.708;2023-10-31T08:54:11;11.40;99.90
31783;DHT22;18351;47.560;9.708;2023-10-31T08:56:36;11.50;99.90
31783;DHT22;18351;47.560;9.708;2023-10-31T08:59:02;11.50;99.90
31783;DHT22;18351;47.560;9.708;2023-10-31T09:01:28;11.50;99.90
31783;DHT22;18351;47.560;9.708;2023-10-31T09:03:56;11.60;99.90
31783;DHT22;18351;47.560;9.708;2023-10-31T09:06:23;11.60;99.90
31783;DHT22;18351;47.560;9.708;2023-10-31T09:08:49;11.70;99.90
31783;DHT22;18351;47.560;9.708;2023-10-31T09:11:15;11.80;99.90
31783;DHT22;18351;47.560;9.708;2023-10-31T09:13:41;11.80;99.90
31783;DHT22;18351;47.560;9.708;2023-10-31T09:16:06;11.80;99.90
31783;DHT22;18351;47.560;9.708;2023-10-31T09:18:32;11.90;99.90
31783;DHT22;18351;47.560;9.708;2023-10-31T09:20:58;12.00;99.90
31783;DHT22;18351;47.560;9.708;2023-10-31T09:23:23;12.00;99.90
31783;DHT22;18351;47.560;9.708;2023-10-31T09:25:49;12.10;99.90
31783;DHT22;18351;47.560;9.708;2023-10-31T09:28:15;12.00;99.90
31783;DHT22;18351;47.560;9.708;2023-10-31T09:30:40;12.00;99.90
31783;DHT22;18351;47.560;9.708;2023-10-31T09:33:06;12.00;99.90
31783;DHT22;18351;47.560;9.708;2023-10-31T09:35:31;12.00;99.90
31783;DHT22;18351;47.560;9.708;2023-10-31T09:37:57;12.00;99.90
31783;DHT22;18351;47.560;9.708;2023-10-31T09:40:23;12.00;99.90
31783;DHT22;18351;47.560;9.708;2023-10-31T09:42:48;11.80;99.90
31783;DHT22;18351;47.560;9.708;2023-10-31T09:45:17;11.90;99.90
31783;DHT22;18351;47.560;9.708;2023-10-31T09:47:43;11.90;99.90
31783;DHT22;18351;47.560;9.708;2023-10-31T09:50:09;11.90;99.90
31783;DHT22;18351;47.560;9.708;2023-10-31T09:52:38;11.90;99.90
31783;DHT22;18351;47.560;9.708;2023-10-31T09:55:04;11.90;99.90
31783;DHT22;18351;47.560;9.708;2023-10-31T09:57:31;11.90;99.90
31783;DHT22;18351;47.560;9.708;2023-10-31T09:59:57;11.90;99.90
31783;DHT22;18351;47.560;9.708;2023-10-31T10:02:23;12.00;99.90
31783;DHT22;18351;47.560;9.708;2023-10-31T10:04:48;11.90;99.90
31783;DHT22;18351;47.560;9.708;2023-10-31T10:07:18;11.90;99.90
31783;DHT22;18351;47.560;9.708;2023-10-31T10:09:46;11.90;99.90
31783;DHT22;18351;47.560;9.708;2023-10-31T10:12:12;11.90;99.90
31783;DHT22;18351;47.560;9.708;2023-10-31T10:14:39;11.80;99.90
31783;DHT22;18351;47.560;9.708;2023-10-31T10:17:21;11.80;99.90
31783;DHT22;18351;47.560;9.708;2023-10-31T10:19:47;11.70;99.90
31783;DHT22;18351;47.560;9.708;2023-10-31T10:22:13;11.70;99.90
31783;DHT22;18351;47.560;9.708;2023-10-31T10:24:41;11.70;99.90
31783;DHT22;18351;47.560;9.708;2023-10-31T10:27:08;11.60;99.90
31783;DHT22;18351;47.560;9.708;2023-10-31T10:29:34;11.60;99.90
31783;DHT22;18351;47.560;9.708;2023-10-31T10:32:00;11.70;99.90
31783;DHT22;18351;47.560;9.708;2023-10-31T10:34:26;11.60;99.90
31783;DHT22;18351;47.560;9.708;2023-10-31T10:36:52;11.60;99.90
31783;DHT22;18351;47.560;9.708;2023-10-31T10:39:20;11.50;99.90
31783;DHT22;18351;47.560;9.708;2023-10-31T10:41:54;11.60;99.90
31783;DHT22;18351;47.560;9.708;2023-10-31T10:46:58;11.70;99.90
31783;DHT22;18351;47.560;9.708;2023-10-31T10:49:27;11.60;99.90
31783;DHT22;18351;47.560;9.708;2023-10-31T10:51:59;11.70;99.90
31783;DHT22;18351;47.560;9.708;2023-10-31T10:57:47;11.80;99.90
31783;DHT22;18351;47.560;9.708;2023-10-31T10:59:49;11.90;99.90
31783;DHT22;18351;47.560;9.708;2023-10-31T11:02:18;11.80;99.90
31783;DHT22;18351;47.560;9.708;2023-10-31T11:04:44;11.70;99.90
31783;DHT22;18351;47.560;9.708;2023-10-31T11:07:11;11.70;99.90
31783;DHT22;18351;47.560;9.708;2023-10-31T11:09:37;11.80;99.90
31783;DHT22;18351;47.560;9.708;2023-10-31T11:12:04;11.80;99.90
31783;DHT22;18351;47.560;9.708;2023-10-31T11:14:30;11.90;99.90
31783;DHT22;18351;47.560;9.708;2023-10-31T11:17:01;12.00;99.90
31783;DHT22;18351;47.560;9.708;2023-10-31T11:19:28;12.10;99.90
31783;DHT22;18351;47.560;9.708;2023-10-31T11:24:24;12.30;99.90
31783;DHT22;18351;47.560;9.708;2023-10-31T11:26:58;12.40;99.90
31783;DHT22;18351;47.560;9.708;2023-10-31T11:29:24;12.60;99.90
31783;DHT22;18351;47.560;9.708;2023-10-31T11:31:51;12.60;99.90
31783;DHT22;18351;47.560;9.708;2023-10-31T11:34:17;12.70;99.90
31783;DHT22;18351;47.560;9.708;2023-10-31T11:36:45;12.80;99.90
31783;DHT22;18351;47.560;9.708;2023-10-31T11:39:13;12.90;99.90
31783;DHT22;18351;47.560;9.708;2023-10-31T11:41:39;13.00;99.90
31783;DHT22;18351;47.560;9.708;2023-10-31T11:44:05;13.10;99.90
31783;DHT22;18351;47.560;9.708;2023-10-31T11:46:30;13.20;99.90
31783;DHT22;18351;47.560;9.708;2023-10-31T11:48:56;13.30;99.90
31783;DHT22;18351;47.560;9.708;2023-10-31T11:51:22;13.20;99.90
31783;DHT22;18351;47.560;9.708;2023-10-31T11:53:49;13.20;99.90
31783;DHT22;18351;47.560;9.708;2023-10-31T11:56:15;13.10;99.90
31783;DHT22;18351;47.560;9.708;2023-10-31T11:58:41;13.10;99.90
31783;DHT22;18351;47.560;9.708;2023-10-31T12:01:09;13.10;99.90
31783;DHT22;18351;47.560;9.708;2023-10-31T12:03:42;13.20;99.90
31783;DHT22;18351;47.560;9.708;2023-10-31T12:06:09;13.30;99.90
31783;DHT22;18351;47.560;9.708;2023-10-31T12:08:36;13.20;99.90
31783;DHT22;18351;47.560;9.708;2023-10-31T12:11:05;13.20;99.90
31783;DHT22;18351;47.560;9.708;2023-10-31T12:13:31;13.30;99.90
31783;DHT22;18351;47.560;9.708;2023-10-31T12:15:57;13.30;99.90
31783;DHT22;18351;47.560;9.708;2023-10-31T12:18:22;13.10;99.90
31783;DHT22;18351;47.560;9.708;2023-10-31T12:20:48;13.10;99.90
31783;DHT22;18351;47.560;9.708;2023-10-31T12:23:14;13.00;99.90
31783;DHT22;18351;47.560;9.708;2023-10-31T12:25:50;12.90;99.90
31783;DHT22;18351;47.560;9.708;2023-10-31T12:28:21;12.80;99.90
31783;DHT22;18351;47.560;9.708;2023-10-31T12:30:47;12.70;99.90
31783;DHT22;18351;47.560;9.708;2023-10-31T12:33:14;12.50;99.90
31783;DHT22;18351;47.560;9.708;2023-10-31T12:35:40;12.40;99.90
31783;DHT22;18351;47.560;9.708;2023-10-31T12:38:06;12.30;99.90
31783;DHT22;18351;47.560;9.708;2023-10-31T12:40:33;12.30;99.90
31783;DHT22;18351;47.560;9.708;2023-10-31T12:42:59;12.30;99.90
31783;DHT22;18351;47.560;9.708;2023-10-31T12:45:25;12.40;99.90
31783;DHT22;18351;47.560;9.708;2023-10-31T12:48:04;12.40;99.90
31783;DHT22;18351;47.560;9.708;2023-10-31T12:50:31;12.60;99.90
31783;DHT22;18351;47.560;9.708;2023-10-31T12:52:57;12.60;99.90
31783;DHT22;18351;47.560;9.708;2023-10-31T12:55:28;12.80;99.90
31783;DHT22;18351;47.560;9.708;2023-10-31T12:57:54;12.70;99.90
31783;DHT22;18351;47.560;9.708;2023-10-31T13:00:21;12.70;99.90
31783;DHT22;18351;47.560;9.708;2023-10-31T13:03:01;12.70;99.90
31783;DHT22;18351;47.560;9.708;2023-10-31T13:05:27;12.60;99.90
31783;DHT22;18351;47.560;9.708;2023-10-31T13:07:55;12.60;99.90
31783;DHT22;18351;47.560;9.708;2023-10-31T13:10:26;12.60;99.90
31783;DHT22;18351;47.560;9.708;2023-10-31T13:12:53;12.70;99.90
31783;DHT22;18351;47.560;9.708;2023-10-31T13:15:23;12.70;99.90
31783;DHT22;18351;47.560;9.708;2023-10-31T13:17:50;12.60;99.90
31783;DHT22;18351;47.560;9.708;2023-10-31T13:20:18;12.70;99.90
31783;DHT22;18351;47.560;9.708;2023-10-31T13:22:44;12.80;99.90
31783;DHT22;18351;47.560;9.708;2023-10-31T13:25:12;12.70;99.90
31783;DHT22;18351;47.560;9.708;2023-10-31T13:27:40;12.70;99.90
31783;DHT22;18351;47.560;9.708;2023-10-31T13:30:07;12.70;99.90
31783;DHT22;18351;47.560;9.708;2023-10-31T13:32:33;12.60;99.90
31783;DHT22;18351;47.560;9.708;2023-10-31T13:34:59;12.50;99.90
31783;DHT22;18351;47.560;9.708;2023-10-31T13:37:25;12.50;99.90
31783;DHT22;18351;47.560;9.708;2023-10-31T13:39:51;12.50;99.90
31783;DHT22;18351;47.560;9.708;2023-10-31T13:42:16;12.30;99.90
31783;DHT22;18351;47.560;9.708;2023-10-31T13:44:42;12.40;99.90
31783;DHT22;18351;47.560;9.708;2023-10-31T13:47:08;12.30;99.90
31783;DHT22;18351;47.560;9.708;2023-10-31T13:49:35;12.20;99.90
31783;DHT22;18351;47.560;9.708;2023-10-31T13:52:00;12.20;99.90
31783;DHT22;18351;47.560;9.708;2023-10-31T13:54:26;12.10;99.90
31783;DHT22;18351;47.560;9.708;2023-10-31T13:56:53;12.10;99.90
31783;DHT22;18351;47.560;9.708;2023-10-31T13:59:19;12.10;99.90
31783;DHT22;18351;47.560;9.708;2023-10-31T14:01:45;12.00;99.90
31783;DHT22;18351;47.560;9.708;2023-10-31T14:04:11;12.00;99.90
31783;DHT22;18351;47.560;9.708;2023-10-31T14:06:41;11.90;99.90
31783;DHT22;18351;47.560;9.708;2023-10-31T14:09:07;11.90;99.90
31783;DHT22;18351;47.560;9.708;2023-10-31T14:11:33;11.70;99.90
31783;DHT22;18351;47.560;9.708;2023-10-31T14:14:00;11.60;99.90
31783;DHT22;18351;47.560;9.708;2023-10-31T14:16:40;11.60;99.90
31783;DHT22;18351;47.560;9.708;2023-10-31T14:19:07;11.60;99.90
31783;DHT22;18351;47.560;9.708;2023-10-31T14:21:33;11.60;99.90
31783;DHT22;18351;47.560;9.708;2023-10-31T14:24:00;11.50;99.90
31783;DHT22;18351;47.560;9.708;2023-10-31T14:26:26;11.60;99.90
31783;DHT22;18351;47.560;9.708;2023-10-31T14:28:52;11.50;99.90
31783;DHT22;18351;47.560;9.708;2023-10-31T14:31:18;11.50;99.90
31783;DHT22;18351;47.560;9.708;2023-10-31T14:33:46;11.50;99.90
31783;DHT22;18351;47.560;9.708;2023-10-31T14:36:12;11.40;99.90
31783;DHT22;18351;47.560;9.708;2023-10-31T14:38:39;11.40;99.90
31783;DHT22;18351;47.560;9.708;2023-10-31T14:41:05;11.20;99.90
31783;DHT22;18351;47.560;9.708;2023-10-31T14:43:31;11.10;99.90
31783;DHT22;18351;47.560;9.708;2023-10-31T14:45:57;11.00;99.90
31783;DHT22;18351;47.560;9.708;2023-10-31T14:48:23;10.90;99.90
31783;DHT22;18351;47.560;9.708;2023-10-31T14:50:49;10.80;99.90
31783;DHT22;18351;47.560;9.708;2023-10-31T14:53:15;10.70;99.90
31783;DHT22;18351;47.560;9.708;2023-10-31T14:55:41;10.70;99.90
31783;DHT22;18351;47.560;9.708;2023-10-31T14:58:06;10.80;99.90
31783;DHT22;18351;47.560;9.708;2023-10-31T15:00:35;10.90;99.90
31783;DHT22;18351;47.560;9.708;2023-10-31T15:03:01;10.90;99.90
31783;DHT22;18351;47.560;9.708;2023-10-31T15:05:27;10.90;99.90
31783;DHT22;18351;47.560;9.708;2023-10-31T15:07:52;11.00;99.90
31783;DHT22;18351;47.560;9.708;2023-10-31T15:10:21;11.00;99.90
31783;DHT22;18351;47.560;9.708;2023-10-31T15:12:48;11.10;99.90
31783;DHT22;18351;47.560;9.708;2023-10-31T15:15:16;11.10;99.90
31783;DHT22;18351;47.560;9.708;2023-10-31T15:17:42;11.10;99.90
31783;DHT22;18351;47.560;9.708;2023-10-31T15:20:08;11.20;99.90
31783;DHT22;18351;47.560;9.708;2023-10-31T15:22:39;11.20;99.90
31783;DHT22;18351;47.560;9.708;2023-10-31T15:25:05;11.10;99.90
31783;DHT22;18351;47.560;9.708;2023-10-31T15:27:31;11.10;99.90
31783;DHT22;18351;47.560;9.708;2023-10-31T15:29:56;11.10;99.90
31783;DHT22;18351;47.560;9.708;2023-10-31T15:32:22;11.10;99.90